PWSweather.com
Personal Weather Stations
Station Observations
KCACHEST1
Chester, CA 96020

Chester, CA 96020

Lat: 40.2965, Lon: -121.228088

Elevation: 4530

Station Type: Davis Vantage Pro

http://www.chesterweathercenter.com/

Latest ConditionsUpdated 11:10:09 AM PDT Thursday, Jul 2, 2015
Currently Today's Max Today's Min Today's Average
Temperature 80.3°F26.8°C 80.9°F27.2°C 58.6°F14.8°C 64.9°F18.3°C
Dew Point 48.5°F9.2°C 55.9°F13.3°C 46.2°F7.9°C 49.0°F9.4°C
Winds Calm Calm Calm SSECalm SSE - Calm Calm
Wind Gusts -- -- - -
Humidity 33% 68% 33% 57%
Pressure 29.70 in1005.8 mb 29.74 in1007.1 mb 29.64 in1003.7 mb -
Hour Temp Dew Point Humidity Winds Wind Gusts Pressure Precip Precip Rate Daily Precip Total
11:10 AM 80.3°F26.8°C 48.5°F9.2°C 33% Calm Calm -- 29.70 in1005.8 mb - 0.00 in0.0 mm 0.00 in0.0 mm
11:00 AM 80.9°F27.2°C 50.7°F10.4°C 35% Calm Calm -- 29.68 in1005.1 mb - 0.00 in0.0 mm 0.00 in0.0 mm
10:50 AM 80.4°F26.9°C 51.0°F10.6°C 36% Calm Calm -- 29.68 in1005.1 mb - 0.00 in0.0 mm 0.00 in0.0 mm
10:40 AM 78.0°F25.6°C 53.7°F12.1°C 43% Calm Calm -- 29.69 in1005.4 mb - 0.00 in0.0 mm 0.00 in0.0 mm
10:30 AM 77.9°F25.5°C 54.2°F12.3°C 44% Calm Calm -- 29.69 in1005.4 mb - 0.00 in0.0 mm 0.00 in0.0 mm
10:20 AM 78.2°F25.7°C 53.2°F11.8°C 42% Calm Calm -- 29.69 in1005.4 mb - 0.00 in0.0 mm 0.00 in0.0 mm
10:10 AM 77.4°F25.2°C 52.5°F11.4°C 42% Calm Calm -- 29.70 in1005.8 mb - 0.00 in0.0 mm 0.00 in0.0 mm
10:00 AM 76.0°F24.4°C 53.1°F11.7°C 45% Calm Calm -- 29.69 in1005.4 mb - 0.00 in0.0 mm 0.00 in0.0 mm
09:50 AM 75.9°F24.4°C 53.0°F11.7°C 45% Calm Calm -- 29.69 in1005.4 mb - 0.00 in0.0 mm 0.00 in0.0 mm
09:40 AM 76.0°F24.4°C 54.3°F12.4°C 47% Calm Calm -- 29.70 in1005.8 mb - 0.00 in0.0 mm 0.00 in0.0 mm
09:30 AM 74.0°F23.3°C 54.7°F12.6°C 51% Calm Calm -- 29.70 in1005.8 mb - 0.00 in0.0 mm 0.00 in0.0 mm
09:20 AM 73.2°F22.9°C 55.0°F12.8°C 53% Calm Calm -- 29.71 in1006.1 mb - 0.00 in0.0 mm 0.00 in0.0 mm
09:10 AM 72.5°F22.5°C 55.9°F13.3°C 56% Calm Calm -- 29.71 in1006.1 mb - 0.00 in0.0 mm 0.00 in0.0 mm
09:00 AM 72.1°F22.3°C 55.5°F13.1°C 56% Calm Calm -- 29.69 in1005.4 mb - 0.00 in0.0 mm 0.00 in0.0 mm
08:50 AM 70.3°F21.3°C 55.8°F13.2°C 60% Calm Calm -- 29.70 in1005.8 mb - 0.00 in0.0 mm 0.00 in0.0 mm
08:40 AM 69.8°F21.0°C 54.4°F12.4°C 58% Calm Calm -- 29.70 in1005.8 mb - 0.00 in0.0 mm 0.00 in0.0 mm
08:30 AM 67.9°F19.9°C 53.5°F11.9°C 60% Calm Calm -- 29.71 in1006.1 mb - 0.00 in0.0 mm 0.00 in0.0 mm
08:20 AM 66.1°F18.9°C 52.7°F11.5°C 62% Calm Calm -- 29.73 in1006.8 mb - 0.00 in0.0 mm 0.00 in0.0 mm
08:10 AM 64.7°F18.2°C 51.8°F11.0°C 63% Calm Calm -- 29.73 in1006.8 mb - 0.00 in0.0 mm 0.00 in0.0 mm
08:00 AM 63.3°F17.4°C 50.9°F10.5°C 64% Calm Calm -- 29.73 in1006.8 mb - 0.00 in0.0 mm 0.00 in0.0 mm
07:50 AM 61.9°F16.6°C 50.8°F10.4°C 67% Calm Calm -- 29.73 in1006.8 mb - 0.00 in0.0 mm 0.00 in0.0 mm
07:40 AM 60.9°F16.1°C 50.3°F10.2°C 68% Calm Calm -- 29.73 in1006.8 mb - 0.00 in0.0 mm 0.00 in0.0 mm
07:30 AM 60.1°F15.6°C 49.5°F9.7°C 68% Calm Calm -- 29.73 in1006.8 mb - 0.00 in0.0 mm 0.00 in0.0 mm
07:20 AM 59.5°F15.3°C 48.9°F9.4°C 68% Calm Calm -- 29.73 in1006.8 mb - 0.00 in0.0 mm 0.00 in0.0 mm
07:10 AM 59.0°F15.0°C 48.4°F9.1°C 68% Calm Calm -- 29.73 in1006.8 mb - 0.00 in0.0 mm 0.00 in0.0 mm
07:00 AM 58.7°F14.8°C 48.2°F9.0°C 68% Calm Calm -- 29.73 in1006.8 mb - 0.00 in0.0 mm 0.00 in0.0 mm
06:50 AM 58.6°F14.8°C 47.7°F8.7°C 67% Calm Calm -- 29.74 in1007.1 mb - 0.00 in0.0 mm 0.00 in0.0 mm
06:40 AM 58.6°F14.8°C 46.9°F8.3°C 65% Calm Calm -- 29.73 in1006.8 mb - 0.00 in0.0 mm 0.00 in0.0 mm
06:30 AM 58.7°F14.8°C 46.5°F8.1°C 64% Calm Calm -- 29.73 in1006.8 mb - 0.00 in0.0 mm 0.00 in0.0 mm
06:20 AM 58.7°F14.8°C 46.5°F8.1°C 64% Calm Calm -- 29.73 in1006.8 mb - 0.00 in0.0 mm 0.00 in0.0 mm
06:10 AM 58.9°F14.9°C 46.3°F7.9°C 63% Calm Calm -- 29.73 in1006.8 mb - 0.00 in0.0 mm 0.00 in0.0 mm
06:00 AM 59.2°F15.1°C 46.2°F7.9°C 62% Calm Calm -- 29.73 in1006.8 mb - 0.00 in0.0 mm 0.00 in0.0 mm
05:50 AM 59.3°F15.2°C 46.3°F7.9°C 62% Calm Calm -- 29.73 in1006.8 mb - 0.00 in0.0 mm 0.00 in0.0 mm
05:40 AM 59.5°F15.3°C 46.5°F8.1°C 62% Calm Calm -- 29.72 in1006.4 mb - 0.00 in0.0 mm 0.00 in0.0 mm
05:30 AM 59.6°F15.3°C 46.6°F8.1°C 62% Calm Calm -- 29.72 in1006.4 mb - 0.00 in0.0 mm 0.00 in0.0 mm
05:20 AM 59.8°F15.4°C 46.7°F8.2°C 62% Calm Calm -- 29.72 in1006.4 mb - 0.00 in0.0 mm 0.00 in0.0 mm
05:10 AM 60.1°F15.6°C 47.5°F8.6°C 63% Calm Calm -- 29.71 in1006.1 mb - 0.00 in0.0 mm 0.00 in0.0 mm
05:00 AM 60.2°F15.7°C 47.1°F8.4°C 62% Calm Calm -- 29.70 in1005.8 mb - 0.00 in0.0 mm 0.00 in0.0 mm
04:50 AM 60.5°F15.8°C 47.4°F8.6°C 62% Calm Calm -- 29.70 in1005.8 mb - 0.00 in0.0 mm 0.00 in0.0 mm
04:40 AM 60.7°F15.9°C 47.2°F8.4°C 61% Calm Calm -- 29.70 in1005.8 mb - 0.00 in0.0 mm 0.00 in0.0 mm
04:30 AM 60.7°F15.9°C 47.6°F8.7°C 62% Calm Calm -- 29.70 in1005.8 mb - 0.00 in0.0 mm 0.00 in0.0 mm
04:20 AM 60.8°F16.0°C 47.3°F8.5°C 61% Calm Calm -- 29.70 in1005.8 mb - 0.00 in0.0 mm 0.00 in0.0 mm
04:10 AM 61.0°F16.1°C 47.0°F8.3°C 60% Calm Calm -- 29.70 in1005.8 mb - 0.00 in0.0 mm 0.00 in0.0 mm
04:00 AM 61.2°F16.2°C 47.2°F8.4°C 60% Calm Calm -- 29.70 in1005.8 mb - 0.00 in0.0 mm 0.00 in0.0 mm
03:50 AM 61.3°F16.3°C 46.8°F8.2°C 59% Calm Calm -- 29.69 in1005.4 mb - 0.00 in0.0 mm 0.00 in0.0 mm
03:40 AM 61.3°F16.3°C 46.8°F8.2°C 59% Calm Calm -- 29.69 in1005.4 mb - 0.00 in0.0 mm 0.00 in0.0 mm
03:30 AM 61.5°F16.4°C 47.0°F8.3°C 59% Calm Calm -- 29.68 in1005.1 mb - 0.00 in0.0 mm 0.00 in0.0 mm
03:20 AM 61.5°F16.4°C 47.0°F8.3°C 59% Calm Calm -- 29.68 in1005.1 mb - 0.00 in0.0 mm 0.00 in0.0 mm
03:10 AM 61.6°F16.4°C 47.1°F8.4°C 59% Calm Calm -- 29.68 in1005.1 mb - 0.00 in0.0 mm 0.00 in0.0 mm
03:00 AM 61.6°F16.4°C 46.7°F8.2°C 58% Calm Calm -- 29.65 in1004.1 mb - 0.00 in0.0 mm 0.00 in0.0 mm
02:50 AM 61.6°F16.4°C 46.7°F8.2°C 58% Calm Calm -- 29.65 in1004.1 mb - 0.00 in0.0 mm 0.00 in0.0 mm
02:40 AM 61.6°F16.4°C 46.2°F7.9°C 57% Calm Calm -- 29.64 in1003.7 mb - 0.00 in0.0 mm 0.00 in0.0 mm
02:30 AM 61.6°F16.4°C 46.2°F7.9°C 57% Calm Calm -- 29.65 in1004.1 mb - 0.00 in0.0 mm 0.00 in0.0 mm
02:20 AM 61.8°F16.6°C 46.4°F8.0°C 57% Calm Calm -- 29.65 in1004.1 mb - 0.00 in0.0 mm 0.00 in0.0 mm
02:10 AM 62.0°F16.7°C 46.6°F8.1°C 57% Calm Calm -- 29.65 in1004.1 mb - 0.00 in0.0 mm 0.00 in0.0 mm
02:00 AM 62.1°F16.7°C 46.7°F8.2°C 57% Calm Calm -- 29.64 in1003.7 mb - 0.00 in0.0 mm 0.00 in0.0 mm
01:50 AM 62.3°F16.8°C 46.4°F8.0°C 56% Calm Calm -- 29.65 in1004.1 mb - 0.00 in0.0 mm 0.00 in0.0 mm
01:40 AM 62.6°F17.0°C 46.7°F8.2°C 56% Calm Calm -- 29.64 in1003.7 mb - 0.00 in0.0 mm 0.00 in0.0 mm
01:30 AM 62.8°F17.1°C 46.9°F8.3°C 56% Calm Calm -- 29.64 in1003.7 mb - 0.00 in0.0 mm 0.00 in0.0 mm
01:20 AM 63.1°F17.3°C 47.1°F8.4°C 56% Calm Calm -- 29.64 in1003.7 mb - 0.00 in0.0 mm 0.00 in0.0 mm
01:10 AM 63.2°F17.3°C 46.8°F8.2°C 55% Calm Calm -- 29.65 in1004.1 mb - 0.00 in0.0 mm 0.00 in0.0 mm
01:00 AM 63.5°F17.5°C 47.0°F8.3°C 55% Calm Calm -- 29.64 in1003.7 mb - 0.00 in0.0 mm 0.00 in0.0 mm
12:50 AM 63.9°F17.7°C 46.9°F8.3°C 54% Calm Calm -- 29.64 in1003.7 mb - 0.00 in0.0 mm 0.00 in0.0 mm
12:40 AM 64.3°F17.9°C 47.3°F8.5°C 54% Calm Calm -- 29.64 in1003.7 mb - 0.00 in0.0 mm 0.00 in0.0 mm
12:30 AM 64.8°F18.2°C 47.3°F8.5°C 53% Calm Calm -- 29.64 in1003.7 mb - 0.00 in0.0 mm 0.00 in0.0 mm
12:20 AM 64.7°F18.2°C 47.2°F8.4°C 53% Calm Calm -- 29.65 in1004.1 mb - 0.00 in0.0 mm 0.00 in0.0 mm
12:10 AM 64.7°F18.2°C 47.2°F8.4°C 53% Calm Calm -- 29.69 in1005.4 mb - 0.00 in0.0 mm 0.00 in0.0 mm
12:00 AM 65.0°F18.3°C 47.4°F8.6°C 53% Calm Calm -- 29.69 in1005.4 mb - 0.00 in0.0 mm 0.00 in0.0 mm